Time;durP1;ratioP1;P1;durP2;ratioP2;P2;SDS_P1;SDS_P2;PMS_P1;PMS_P2;Temp;Humidity;BMP_temperature;BMP_pressure;BME280_temperature;BME280_humidity;BME280_pressure;Samples;Min_cycle;Max_cycle;Signal;HPM_P1;HPM_P2
2022/10/21 03:02:30;;;;;;;1.20;1.10;;;20.00;51.70;;;;;;4935689;23;45635;-57
2022/10/21 03:04:55;;;;;;;1.20;1.10;;;20.00;51.70;;;;;;4868185;28;44965;-59
2022/10/21 03:07:21;;;;;;;1.40;1.30;;;20.00;51.60;;;;;;4854770;28;45763;-59
2022/10/21 03:09:47;;;;;;;1.20;1.10;;;20.00;51.70;;;;;;4875059;28;45569;-60
2022/10/21 03:12:12;;;;;;;2.60;1.42;;;20.00;51.60;;;;;;4869319;29;45482;-57
2022/10/21 03:14:38;;;;;;;1.25;1.15;;;20.00;51.60;;;;;;4886792;28;44953;-59
2022/10/21 03:17:03;;;;;;;1.52;1.05;;;20.00;51.70;;;;;;4868536;29;47312;-59
2022/10/21 03:19:29;;;;;;;1.58;1.45;;;20.00;51.70;;;;;;4891309;28;45157;-58
2022/10/21 03:21:54;;;;;;;1.27;1.17;;;20.00;51.70;;;;;;4897627;28;45371;-57
2022/10/21 03:24:20;;;;;;;1.10;1.00;;;20.00;52.30;;;;;;4870057;29;45271;-59
2022/10/21 03:26:45;;;;;;;1.42;1.05;;;20.00;51.70;;;;;;4896131;28;45373;-58
2022/10/21 03:29:11;;;;;;;1.23;1.13;;;20.00;51.70;;;;;;4891465;28;45381;-59
2022/10/21 03:31:37;;;;;;;1.65;1.10;;;20.00;51.70;;;;;;4887630;28;45351;-59
2022/10/21 03:34:02;;;;;;;1.25;1.10;;;20.00;51.70;;;;;;4888577;28;45340;-58
2022/10/21 03:36:28;;;;;;;1.58;1.23;;;19.90;51.70;;;;;;4887179;28;45356;-58
2022/10/21 03:38:53;;;;;;;1.63;1.20;;;19.90;51.70;;;;;;4875913;28;44707;-58
2022/10/21 03:41:19;;;;;;;1.13;1.02;;;19.90;51.70;;;;;;4841528;28;45330;-58
2022/10/21 03:43:44;;;;;;;1.45;1.20;;;19.90;51.70;;;;;;4888759;28;45674;-58
2022/10/21 03:46:10;;;;;;;1.20;1.10;;;20.00;51.70;;;;;;4890611;28;45334;-59
2022/10/21 03:48:35;;;;;;;3.97;1.30;;;19.90;51.60;;;;;;4890630;28;45574;-58
2022/10/21 03:51:01;;;;;;;2.45;1.30;;;19.90;51.60;;;;;;4892912;28;45494;-58
2022/10/21 03:53:27;;;;;;;1.30;1.20;;;19.90;51.90;;;;;;4875330;28;44962;-58
2022/10/21 03:55:52;;;;;;;1.35;1.00;;;19.90;51.70;;;;;;4889917;29;45954;-59
2022/10/21 03:58:18;;;;;;;1.40;1.10;;;19.90;51.70;;;;;;4895416;28;45308;-59
2022/10/21 04:00:43;;;;;;;1.20;1.00;;;19.90;51.70;;;;;;4889956;28;45512;-58
2022/10/21 04:03:09;;;;;;;1.38;1.08;;;19.90;51.70;;;;;;4870954;28;45364;-59
2022/10/21 04:05:35;;;;;;;1.35;1.00;;;19.90;51.70;;;;;;4892381;28;45243;-58
2022/10/21 04:08:00;;;;;;;1.30;1.20;;;19.90;51.70;;;;;;4873050;29;45547;-59
2022/10/21 04:10:26;;;;;;;1.27;1.13;;;19.90;51.70;;;;;;4876884;28;45373;-58
2022/10/21 04:12:52;;;;;;;1.30;1.20;;;19.90;51.70;;;;;;4872150;29;45415;-58
2022/10/21 04:15:17;;;;;;;1.10;1.00;;;19.90;51.60;;;;;;4888960;28;45509;-58
2022/10/21 04:17:44;;;;;;;1.38;1.10;;;19.90;51.70;;;;;;4888222;28;44874;-58
2022/10/21 04:20:10;;;;;;;1.40;1.20;;;19.90;51.70;;;;;;4874534;28;45487;-58
2022/10/21 04:22:36;;;;;;;1.80;1.33;;;19.90;51.70;;;;;;4873675;29;45113;-58
2022/10/21 04:25:01;;;;;;;1.45;1.20;;;19.90;51.70;;;;;;4887609;28;46093;-58
2022/10/21 04:27:27;;;;;;;1.40;1.30;;;19.90;51.70;;;;;;4869809;28;45205;-58
2022/10/21 04:29:52;;;;;;;1.13;1.02;;;19.90;51.70;;;;;;4890649;28;45571;-59
2022/10/21 04:32:18;;;;;;;2.17;1.45;;;19.90;51.60;;;;;;4889395;29;45789;-60
2022/10/21 04:34:44;;;;;;;1.17;1.08;;;19.90;51.70;;;;;;4883824;28;45807;-55
2022/10/21 04:37:10;;;;;;;1.20;1.15;;;19.90;51.70;;;;;;4884877;28;45911;-59
2022/10/21 04:39:36;;;;;;;1.65;1.08;;;19.90;51.70;;;;;;4888852;28;45564;-58
2022/10/21 04:42:01;;;;;;;1.63;1.33;;;19.90;51.70;;;;;;4871370;29;44888;-59
2022/10/21 04:44:27;;;;;;;1.60;1.30;;;19.90;51.70;;;;;;4864412;29;46609;-59
2022/10/21 04:46:52;;;;;;;1.50;1.38;;;19.90;51.70;;;;;;4894771;28;45543;-59
2022/10/21 04:49:18;;;;;;;1.75;1.38;;;19.90;51.70;;;;;;4892872;28;45320;-59
2022/10/21 04:51:43;;;;;;;1.67;1.02;;;19.90;51.60;;;;;;4889809;28;45397;-59
2022/10/21 04:54:09;;;;;;;1.70;1.30;;;19.90;51.60;;;;;;4889989;28;46877;-58
2022/10/21 04:56:34;;;;;;;2.00;1.10;;;19.90;51.70;;;;;;4854970;28;45335;-59
2022/10/21 04:59:00;;;;;;;1.15;1.02;;;19.80;51.60;;;;;;4894376;28;45021;-57
2022/10/21 05:01:26;;;;;;;2.17;1.10;;;19.90;51.70;;;;;;4889123;28;45585;-58
2022/10/21 05:03:51;;;;;;;1.25;1.15;;;19.90;51.70;;;;;;4889688;28;45482;-59
2022/10/21 05:06:17;;;;;;;1.52;1.23;;;19.90;51.70;;;;;;4887929;28;45723;-59
2022/10/21 05:08:42;;;;;;;1.00;0.90;;;19.90;51.70;;;;;;4873913;29;45924;-59
2022/10/21 05:11:08;;;;;;;1.50;1.27;;;19.90;51.70;;;;;;4890420;28;45813;-59
2022/10/21 05:13:33;;;;;;;1.38;1.20;;;19.80;51.70;;;;;;4870670;29;45004;-59
2022/10/21 05:16:00;;;;;;;4.43;1.50;;;19.80;51.60;;;;;;4889663;28;45572;-59
2022/10/21 05:18:25;;;;;;;1.70;1.27;;;19.80;51.60;;;;;;4893637;28;45311;-59
2022/10/21 05:20:52;;;;;;;1.90;1.08;;;19.90;51.70;;;;;;4857754;28;44896;-59
2022/10/21 05:23:17;;;;;;;1.25;1.10;;;19.80;51.60;;;;;;4893094;28;45192;-58
2022/10/21 05:25:44;;;;;;;1.50;1.33;;;19.80;51.70;;;;;;4891508;29;45478;-59
2022/10/21 05:28:09;;;;;;;1.40;1.30;;;19.80;51.70;;;;;;4879140;28;45215;-59
2022/10/21 05:30:35;;;;;;;1.60;1.42;;;19.80;51.70;;;;;;4883724;28;45197;-59
2022/10/21 05:33:00;;;;;;;3.33;1.48;;;19.90;51.70;;;;;;4884001;28;45702;-59
2022/10/21 05:35:26;;;;;;;2.13;1.35;;;19.80;51.70;;;;;;4887841;28;45250;-58
2022/10/21 05:37:51;;;;;;;1.95;1.52;;;19.80;51.70;;;;;;4886725;28;45201;-59
2022/10/21 05:40:17;;;;;;;1.33;1.17;;;19.80;51.70;;;;;;4871351;28;44763;-59
2022/10/21 05:42:43;;;;;;;1.42;1.33;;;19.80;51.70;;;;;;4875787;28;46185;-59
2022/10/21 05:45:09;;;;;;;1.40;1.30;;;19.80;51.70;;;;;;4891158;28;45621;-58
2022/10/21 05:47:34;;;;;;;1.80;1.33;;;19.80;51.70;;;;;;4874049;28;45167;-59
2022/10/21 05:50:00;;;;;;;1.95;1.70;;;19.80;51.70;;;;;;4894447;28;47310;-59
2022/10/21 05:52:26;;;;;;;1.45;1.35;;;19.80;51.70;;;;;;4866618;28;45585;-59
2022/10/21 05:54:51;;;;;;;1.45;1.27;;;19.80;51.70;;;;;;4874376;29;45306;-59
2022/10/21 05:57:17;;;;;;;1.77;1.35;;;19.80;51.70;;;;;;4887448;28;45325;-58
2022/10/21 05:59:42;;;;;;;1.45;1.35;;;19.80;51.70;;;;;;4872881;28;45520;-59
2022/10/21 06:02:09;;;;;;;1.67;1.27;;;19.80;51.60;;;;;;4887322;29;45892;-58
2022/10/21 06:04:34;;;;;;;1.77;1.50;;;19.80;51.60;;;;;;4875902;29;45374;-59
2022/10/21 06:07:00;;;;;;;1.35;1.17;;;19.80;51.60;;;;;;4892165;28;45239;-58
2022/10/21 06:09:25;;;;;;;1.65;1.40;;;19.80;51.60;;;;;;4890335;28;45224;-59
2022/10/21 06:11:51;;;;;;;1.63;1.48;;;19.80;51.70;;;;;;4889577;28;46993;-59
2022/10/21 06:14:18;;;;;;;1.60;1.48;;;19.80;51.70;;;;;;4888804;29;45211;-58
2022/10/21 06:16:44;;;;;;;1.85;1.60;;;19.80;51.70;;;;;;4884387;28;45356;-59
2022/10/21 06:19:09;;;;;;;1.05;1.02;;;19.80;51.70;;;;;;4871871;28;45512;-58
2022/10/21 06:21:35;;;;;;;1.92;1.45;;;19.80;51.70;;;;;;4889851;28;45468;-58
2022/10/21 06:24:00;;;;;;;2.15;1.55;;;19.80;51.70;;;;;;4891781;28;45163;-58
2022/10/21 06:26:26;;;;;;;;;;;19.80;51.70;;;;;;4891716;28;44939;-58
2022/10/21 06:28:51;;;;;;;;;;;19.80;51.80;;;;;;4892890;28;45182;-60
2022/10/21 06:31:17;;;;;;;;;;;19.80;51.70;;;;;;4871848;29;45748;-60
2022/10/21 06:33:43;;;;;;;;;;;19.80;51.70;;;;;;4891668;28;46093;-60
2022/10/21 06:36:08;;;;;;;;;;;19.80;51.70;;;;;;4861201;29;45648;-60
2022/10/21 06:38:35;;;;;;;;;;;19.80;51.70;;;;;;4892756;28;45662;-60
2022/10/21 06:41:01;;;;;;;;;;;19.80;51.70;;;;;;4888900;29;46197;-60
2022/10/21 06:43:27;;;;;;;;;;;19.80;51.70;;;;;;4866214;29;45567;-59
2022/10/21 06:45:57;;;;;;;;;;;19.80;51.70;;;;;;4870971;29;46100;-60
2022/10/21 06:48:22;;;;;;;;;;;19.90;51.70;;;;;;4890368;29;44921;-61
2022/10/21 06:50:48;;;;;;;;;;;19.90;51.70;;;;;;4891016;28;45844;-60
2022/10/21 06:53:13;;;;;;;;;;;19.90;51.70;;;;;;4887121;28;45060;-60
2022/10/21 06:55:39;;;;;;;;;;;19.90;51.70;;;;;;4873646;29;45264;-60
2022/10/21 06:58:04;;;;;;;;;;;19.90;51.60;;;;;;4871067;29;45061;-60
2022/10/21 07:00:30;;;;;;;;;;;19.90;52.30;;;;;;4890681;29;45143;-60
2022/10/21 07:02:55;;;;;;;;;;;20.00;51.70;;;;;;4889937;28;45470;-60
2022/10/21 07:05:21;;;;;;;;;;;20.00;51.70;;;;;;4893178;28;45354;-60
2022/10/21 07:07:46;;;;;;;;;;;20.00;51.70;;;;;;4892142;28;45543;-60
2022/10/21 07:10:12;;;;;;;;;;;19.90;51.70;;;;;;4892523;28;46093;-60
2022/10/21 07:12:37;;;;;;;;;;;19.90;51.70;;;;;;4893213;28;45530;-60
2022/10/21 07:15:03;;;;;;;;;;;20.00;51.80;;;;;;4890677;28;45474;-60
2022/10/21 07:17:29;;;;;;;;;;;20.00;51.70;;;;;;4891100;29;45589;-60
2022/10/21 07:19:55;;;;;;;;;;;20.00;51.70;;;;;;4891794;29;45406;-59
2022/10/21 07:22:20;;;;;;;;;;;20.00;51.60;;;;;;4882557;29;45472;-60
2022/10/21 07:24:46;;;;;;;;;;;20.10;51.60;;;;;;4894074;28;45159;-60
2022/10/21 07:27:11;;;;;;;;;;;20.10;51.70;;;;;;4892710;28;45284;-60
2022/10/21 07:29:37;;;;;;;;;;;20.10;51.60;;;;;;4873797;29;46626;-60
2022/10/21 07:32:02;;;;;;;;;;;20.10;51.60;;;;;;4875868;29;45284;-60
2022/10/21 07:34:28;;;;;;;;;;;20.10;51.60;;;;;;4894909;28;45450;-60
2022/10/21 07:36:53;;;;;;;;;;;20.10;51.60;;;;;;4892905;28;45260;-59
2022/10/21 07:39:20;;;;;;;;;;;20.10;51.60;;;;;;4862962;29;46190;-60
2022/10/21 07:41:47;;;;;;;;;;;20.10;51.60;;;;;;4891339;28;45492;-59
2022/10/21 07:44:12;;;;;;;1.98;1.15;;;20.10;51.60;;;;;;4873532;29;45421;-59
2022/10/21 07:46:39;;;;;;;1.63;1.23;;;20.10;51.40;;;;;;4878302;28;45661;-59
2022/10/21 07:49:04;;;;;;;2.22;1.50;;;20.20;51.40;;;;;;4872516;28;46686;-60
2022/10/21 07:51:30;;;;;;;1.88;1.30;;;20.20;51.50;;;;;;4895967;28;45486;-61
2022/10/21 07:53:56;;;;;;;2.38;1.52;;;20.20;51.50;;;;;;4889933;28;45181;-59
2022/10/21 07:56:27;;;;;;;1.92;1.33;;;20.20;51.50;;;;;;4854703;28;45549;-60
2022/10/21 07:58:52;;;;;;;1.92;1.60;;;20.20;51.50;;;;;;4855398;28;46274;-60
2022/10/21 08:01:18;;;;;;;4.07;1.60;;;20.20;51.50;;;;;;4887314;28;45116;-59
2022/10/21 08:03:44;;;;;;;2.30;1.52;;;20.20;51.40;;;;;;4890163;28;45173;-60
2022/10/21 08:06:10;;;;;;;2.28;1.35;;;20.20;51.40;;;;;;4875345;29;45040;-61
2022/10/21 08:08:35;;;;;;;2.88;1.50;;;20.30;51.50;;;;;;4876006;28;45674;-60
2022/10/21 08:11:01;;;;;;;4.40;1.83;;;20.30;51.40;;;;;;4874023;28;45247;-60
2022/10/21 08:13:27;;;;;;;2.08;1.40;;;20.30;51.40;;;;;;4893191;28;45649;-60
2022/10/21 08:15:53;;;;;;;1.58;1.30;;;20.30;51.40;;;;;;4875966;29;44948;-60
2022/10/21 08:18:19;;;;;;;3.50;1.38;;;20.30;51.40;;;;;;4858483;28;46069;-61
2022/10/21 08:20:45;;;;;;;2.53;1.75;;;20.30;51.40;;;;;;4885155;29;45406;-61
2022/10/21 08:23:11;;;;;;;1.90;1.38;;;20.30;51.40;;;;;;4882731;29;45289;-60
2022/10/21 08:25:37;;;;;;;1.90;1.40;;;20.30;51.40;;;;;;4882825;28;44936;-59
2022/10/21 08:28:03;;;;;;;1.70;1.50;;;20.30;51.50;;;;;;4872071;29;46519;-59
2022/10/21 08:30:30;;;;;;;1.67;1.52;;;20.30;51.50;;;;;;4871429;28;45316;-60
2022/10/21 08:32:56;;;;;;;2.05;1.17;;;20.30;51.60;;;;;;4888277;28;45005;-59
2022/10/21 08:35:22;;;;;;;1.98;1.58;;;20.30;51.60;;;;;;4875728;28;45455;-59
2022/10/21 08:37:48;;;;;;;2.42;1.30;;;20.20;51.60;;;;;;4891737;28;45670;-59
2022/10/21 08:40:14;;;;;;;3.20;1.20;;;20.20;51.60;;;;;;4888151;28;45131;-59
2022/10/21 08:42:44;;;;;;;2.22;1.33;;;20.20;51.60;;;;;;4869951;28;45585;-59
2022/10/21 08:45:17;;;;;;;1.85;1.33;;;20.20;51.60;;;;;;4898425;23;45645;-60
2022/10/21 08:47:48;;;;;;;1.83;1.30;;;20.20;51.70;;;;;;4914116;28;45426;-59
2022/10/21 08:50:19;;;;;;;2.17;1.58;;;20.20;51.70;;;;;;4894977;28;45936;-60
2022/10/21 08:52:55;;;;;;;1.73;1.33;;;20.20;51.60;;;;;;4872698;28;45240;-59
2022/10/21 08:55:30;;;;;;;2.10;1.55;;;20.20;51.60;;;;;;4894119;28;46333;-60
2022/10/21 08:57:56;;;;;;;1.95;1.30;;;20.20;51.70;;;;;;4894214;28;46650;-60
2022/10/21 09:00:23;;;;;;;2.15;1.30;;;20.20;51.70;;;;;;4893846;28;45044;-59
2022/10/21 09:03:31;;;;;;;1.40;1.20;;;20.10;51.60;;;;;;4895653;28;45253;-60
2022/10/21 09:06:13;;;;;;;1.30;1.20;;;20.20;51.60;;;;;;4883812;28;44638;-60
2022/10/21 09:08:49;;;;;;;2.08;1.38;;;20.10;51.50;;;;;;4911060;28;47110;-58
2022/10/21 09:11:35;;;;;;;2.20;1.40;;;20.10;51.70;;;;;;4895108;28;46738;-59
2022/10/21 09:14:55;;;;;;;2.78;1.52;;;20.10;51.60;;;;;;4895131;28;45451;-60
2022/10/21 09:17:33;;;;;;;1.55;1.38;;;20.10;51.50;;;;;;4879329;28;45594;-58
2022/10/21 09:20:36;;;;;;;1.70;1.23;;;20.10;51.60;;;;;;4881858;28;46967;-60
2022/10/21 09:23:23;;;;;;;3.45;1.60;;;20.10;51.50;;;;;;4914470;28;44746;-59
2022/10/21 09:25:53;;;;;;;1.55;1.20;;;20.10;51.60;;;;;;4894015;28;45898;-59
2022/10/21 09:28:18;;;;;;;1.63;1.30;;;20.10;51.60;;;;;;4866922;28;44870;-59
2022/10/21 09:30:44;;;;;;;2.28;1.50;;;20.10;51.60;;;;;;4917791;28;45262;-60
2022/10/21 09:33:33;;;;;;;2.10;1.55;;;20.10;51.60;;;;;;4911723;28;45007;-59
2022/10/21 09:36:22;;;;;;;1.65;1.20;;;20.10;51.60;;;;;;4902313;28;45722;-59
2022/10/21 09:38:56;;;;;;;2.13;1.50;;;20.20;52.10;;;;;;4911563;28;45592;-59
2022/10/21 09:41:27;;;;;;;2.15;1.50;;;20.10;51.50;;;;;;4880413;28;45323;-59
2022/10/21 09:43:54;;;;;;;2.10;1.30;;;20.10;51.50;;;;;;4860537;28;45022;-60
2022/10/21 09:46:20;;;;;;;1.67;1.23;;;20.10;51.60;;;;;;4896265;23;45514;-60
2022/10/21 09:48:55;;;;;;;1.88;1.60;;;20.10;51.60;;;;;;4883340;28;46607;-59
2022/10/21 09:51:29;;;;;;;1.58;1.40;;;20.10;51.60;;;;;;4887474;28;45449;-59
2022/10/21 09:54:08;;;;;;;2.35;1.52;;;20.10;51.60;;;;;;4893854;28;45571;-60
2022/10/21 09:56:42;;;;;;;1.70;1.60;;;20.10;51.60;;;;;;4873488;28;46236;-60
2022/10/21 09:59:10;;;;;;;1.40;1.30;;;20.10;51.60;;;;;;4895279;28;45146;-60
2022/10/21 10:01:36;;;;;;;2.58;1.50;;;20.10;51.60;;;;;;4898603;28;47120;-60
2022/10/21 10:04:31;;;;;;;1.20;1.10;;;20.10;51.70;;;;;;4900972;28;45141;-59
2022/10/21 10:06:59;;;;;;;2.08;1.75;;;20.10;51.60;;;;;;4916457;28;45194;-59
2022/10/21 10:09:28;;;;;;;1.63;1.35;;;20.10;51.60;;;;;;4884500;28;45229;-60
2022/10/21 10:12:05;;;;;;;1.75;1.25;;;20.10;51.60;;;;;;4902379;28;45131;-59
2022/10/21 10:14:43;;;;;;;2.38;1.45;;;20.10;51.60;;;;;;4910303;28;45539;-59
2022/10/21 10:17:18;;;;;;;3.55;1.48;;;20.10;51.60;;;;;;4880582;28;45545;-59
2022/10/21 10:20:04;;;;;;;2.13;1.55;;;20.10;51.50;;;;;;4912697;28;45339;-58
2022/10/21 10:22:34;;;;;;;1.50;1.33;;;20.10;51.50;;;;;;4913167;28;45927;-59
2022/10/21 10:25:07;;;;;;;1.98;1.58;;;20.10;51.50;;;;;;4886289;28;45428;-59
2022/10/21 10:27:33;;;;;;;1.40;1.23;;;20.10;51.50;;;;;;4891258;28;45069;-59
2022/10/21 10:29:59;;;;;;;2.15;1.77;;;20.10;51.50;;;;;;4877790;28;45699;-59
2022/10/21 10:32:31;;;;;;;1.83;1.42;;;20.10;51.50;;;;;;4861223;28;45713;-60
2022/10/21 10:35:02;;;;;;;2.90;1.65;;;20.10;51.50;;;;;;4859307;28;45606;-60
2022/10/21 10:37:30;;;;;;;1.63;1.25;;;20.10;51.50;;;;;;4875232;28;45307;-60
2022/10/21 10:39:58;;;;;;;1.67;1.58;;;20.10;51.60;;;;;;4892019;28;45749;-59
2022/10/21 10:42:30;;;;;;;1.70;1.33;;;20.10;51.50;;;;;;4893365;28;45445;-59
2022/10/21 10:44:58;;;;;;;2.33;1.52;;;20.10;51.50;;;;;;4892059;28;44780;-58
2022/10/21 10:47:25;;;;;;;3.53;1.45;;;20.10;51.60;;;;;;4873275;28;46688;-60
2022/10/21 10:49:51;;;;;;;1.42;1.27;;;20.10;51.60;;;;;;4875428;28;46242;-59
2022/10/21 10:52:23;;;;;;;1.85;1.15;;;20.10;51.60;;;;;;4907683;28;45071;-58
2022/10/21 10:55:07;;;;;;;1.20;1.10;;;20.10;51.50;;;;;;4876155;28;45199;-59
2022/10/21 10:57:32;;;;;;;1.83;1.48;;;20.10;51.60;;;;;;4890020;28;45823;-59
2022/10/21 11:00:21;;;;;;;1.50;1.40;;;20.10;51.60;;;;;;4889514;28;45254;-59
2022/10/21 11:03:00;;;;;;;3.35;1.65;;;20.10;51.60;;;;;;4888342;28;45582;-60
2022/10/21 11:05:38;;;;;;;1.77;1.45;;;20.10;51.60;;;;;;4875445;28;45396;-59
2022/10/21 11:08:33;;;;;;;1.35;1.23;;;20.10;51.60;;;;;;4889495;28;45161;-59
2022/10/21 11:11:00;;;;;;;1.45;1.35;;;20.10;51.60;;;;;;4907090;28;45228;-60
2022/10/21 11:13:27;;;;;;;2.08;1.65;;;20.10;51.60;;;;;;4873055;28;45961;-60
2022/10/21 11:16:23;;;;;;;2.28;1.30;;;20.10;51.70;;;;;;4899489;28;45129;-59
2022/10/21 11:19:17;;;;;;;1.85;1.60;;;20.10;51.70;;;;;;4888401;28;45338;-60
2022/10/21 11:22:13;;;;;;;2.20;1.77;;;20.10;51.60;;;;;;4906888;28;45383;-59
2022/10/21 11:24:44;;;;;;;1.92;1.30;;;20.10;51.70;;;;;;4889357;28;46389;-59
2022/10/21 11:27:34;;;;;;;1.92;1.35;;;20.00;51.60;;;;;;4892541;28;45310;-59
2022/10/21 11:30:20;;;;;;;1.73;1.30;;;20.00;51.60;;;;;;4903942;28;45144;-59
2022/10/21 11:32:49;;;;;;;1.60;1.50;;;20.10;51.60;;;;;;4889630;28;45916;-59
2022/10/21 11:35:15;;;;;;;1.83;1.40;;;20.00;51.60;;;;;;4904312;28;45359;-59
2022/10/21 11:37:56;;;;;;;2.20;1.55;;;20.00;51.60;;;;;;4904721;28;45488;-59
2022/10/21 11:40:39;;;;;;;2.53;1.60;;;20.10;51.60;;;;;;4892305;28;45358;-59
2022/10/21 11:43:18;;;;;;;1.52;1.20;;;20.00;51.60;;;;;;4876543;28;44767;-59
2022/10/21 11:46:12;;;;;;;2.38;1.60;;;20.00;51.70;;;;;;4854941;28;45174;-59
2022/10/21 11:49:06;;;;;;;2.13;1.40;;;20.00;51.70;;;;;;4895573;28;45213;-59
2022/10/21 11:51:58;;;;;;;1.42;1.27;;;20.00;51.60;;;;;;4892858;28;45428;-59
2022/10/21 11:54:39;;;;;;;2.38;1.40;;;20.00;51.60;;;;;;4891682;28;45680;-59
2022/10/21 11:57:11;;;;;;;1.90;1.40;;;20.00;51.60;;;;;;4911255;28;45757;-59
2022/10/21 11:59:56;;;;;;;1.52;1.35;;;20.00;51.60;;;;;;4890761;28;45622;-60
2022/10/21 12:02:43;;;;;;;2.95;1.38;;;20.00;51.70;;;;;;4906557;28;46134;-59
2022/10/21 12:05:41;;;;;;;2.15;1.55;;;20.00;51.70;;;;;;4910069;28;45382;-59
2022/10/21 12:08:23;;;;;;;2.92;1.55;;;20.00;51.70;;;;;;4856771;28;46319;-60
2022/10/21 12:11:02;;;;;;;1.60;1.50;;;20.00;51.60;;;;;;4870349;28;45432;-59
2022/10/21 12:13:38;;;;;;;1.60;1.40;;;20.00;51.70;;;;;;4879617;28;46245;-60
2022/10/21 12:16:06;;;;;;;1.40;1.27;;;20.00;51.60;;;;;;4894356;28;45149;-59
2022/10/21 12:18:40;;;;;;;1.80;1.48;;;20.00;51.60;;;;;;4908394;28;45360;-60
2022/10/21 12:21:07;;;;;;;1.75;1.58;;;20.00;51.70;;;;;;4869120;28;45832;-60
2022/10/21 12:23:32;;;;;;;2.60;1.50;;;20.00;51.60;;;;;;4878420;28;45397;-59
2022/10/21 12:26:02;;;;;;;2.58;1.50;;;20.00;51.60;;;;;;4908051;28;45419;-59
2022/10/21 12:28:41;;;;;;;1.58;1.48;;;20.00;51.60;;;;;;4889937;28;45533;-58
2022/10/21 12:31:25;;;;;;;1.67;1.58;;;20.00;51.60;;;;;;4876916;28;44917;-59
2022/10/21 12:33:50;;;;;;;2.13;1.65;;;20.00;51.50;;;;;;4912331;28;45770;-59
2022/10/21 12:36:17;;;;;;;3.78;1.50;;;20.00;51.60;;;;;;4874556;28;44916;-60
2022/10/21 12:38:49;;;;;;;1.92;1.52;;;20.00;51.60;;;;;;4909281;28;45390;-57
2022/10/21 12:41:25;;;;;;;1.50;1.40;;;20.00;51.60;;;;;;4859646;28;45620;-59
2022/10/21 12:43:59;;;;;;;1.67;1.45;;;20.00;51.60;;;;;;4912340;28;45617;-59
2022/10/21 12:46:26;;;;;;;1.48;1.38;;;20.00;51.60;;;;;;4908621;28;45060;-59
2022/10/21 12:48:52;;;;;;;1.40;1.30;;;20.00;51.60;;;;;;4890933;28;45608;-60
2022/10/21 12:51:23;;;;;;;1.48;1.27;;;20.00;51.50;;;;;;4877349;28;45276;-59
2022/10/21 12:53:55;;;;;;;1.52;1.42;;;20.00;51.60;;;;;;4911908;28;45501;-62
2022/10/21 12:56:34;;;;;;;1.35;1.25;;;20.00;51.50;;;;;;4891913;28;46363;-59
2022/10/21 12:59:03;;;;;;;1.65;1.30;;;20.00;51.50;;;;;;4910665;28;45618;-59
2022/10/21 13:02:03;;;;;;;1.60;1.30;;;20.00;51.60;;;;;;4907657;28;44924;-59
2022/10/21 13:04:32;;;;;;;1.55;1.27;;;20.00;51.60;;;;;;4907251;28;45732;-59
2022/10/21 13:07:00;;;;;;;1.40;1.30;;;20.00;51.60;;;;;;4910662;28;45705;-59
2022/10/21 13:09:36;;;;;;;3.58;1.50;;;20.00;51.50;;;;;;4910256;28;45579;-59
2022/10/21 13:12:08;;;;;;;4.28;1.80;;;20.00;51.50;;;;;;4908813;28;45276;-59
2022/10/21 13:14:49;;;;;;;1.92;1.65;;;20.00;51.50;;;;;;4911053;28;45547;-59
2022/10/21 13:17:20;;;;;;;1.70;1.60;;;20.00;51.50;;;;;;4894662;28;45394;-60
2022/10/21 13:19:46;;;;;;;1.25;1.15;;;20.00;51.50;;;;;;4909106;28;45383;-59
2022/10/21 13:22:16;;;;;;;1.30;1.20;;;20.00;51.60;;;;;;4889456;28;46088;-59
2022/10/21 13:24:41;;;;;;;1.83;1.35;;;20.00;51.50;;;;;;4875972;28;45450;-58
2022/10/21 13:27:27;;;;;;;2.58;1.27;;;20.00;51.50;;;;;;4875695;28;45833;-58
2022/10/21 13:29:53;;;;;;;2.30;1.60;;;20.00;51.60;;;;;;4894228;28;45383;-58
2022/10/21 13:32:27;;;;;;;1.70;1.30;;;20.00;51.60;;;;;;4908129;28;45389;-58
2022/10/21 13:34:58;;;;;;;1.90;1.40;;;20.00;51.60;;;;;;4908974;28;45434;-58
2022/10/21 13:37:28;;;;;;;3.70;1.23;;;20.00;51.60;;;;;;4905757;28;45560;-59
2022/10/21 13:39:54;;;;;;;2.05;1.48;;;20.00;51.60;;;;;;4906457;28;48119;-60
2022/10/21 13:42:19;;;;;;;1.40;1.27;;;20.00;51.60;;;;;;4898213;28;45359;-61
2022/10/21 13:44:53;;;;;;;1.77;1.27;;;20.10;51.60;;;;;;4889688;28;45909;-61
2022/10/21 13:47:27;;;;;;;1.50;1.38;;;20.10;51.40;;;;;;4890625;28;45333;-60
2022/10/21 13:49:54;;;;;;;1.23;1.08;;;20.10;51.40;;;;;;4877457;28;45598;-60
2022/10/21 13:52:19;;;;;;;1.83;1.33;;;20.10;51.40;;;;;;4869667;28;45354;-59
2022/10/21 13:54:45;;;;;;;1.92;1.40;;;20.20;51.50;;;;;;4869023;28;44880;-61
2022/10/21 13:57:15;;;;;;;2.08;1.50;;;20.20;51.40;;;;;;4904221;28;45835;-60
2022/10/21 13:59:41;;;;;;;1.45;1.30;;;20.20;51.40;;;;;;4865879;28;47410;-60
2022/10/21 14:02:20;;;;;;;1.58;1.15;;;20.20;51.40;;;;;;4884861;28;45654;-61
2022/10/21 14:04:45;;;;;;;1.67;1.27;;;20.20;51.40;;;;;;4885754;28;45757;-58
2022/10/21 14:07:14;;;;;;;1.75;1.30;;;20.20;51.40;;;;;;4887706;28;45419;-60
2022/10/21 14:09:43;;;;;;;1.50;1.17;;;20.20;51.40;;;;;;4888149;28;45448;-60
2022/10/21 14:12:35;;;;;;;1.80;1.40;;;20.20;51.30;;;;;;4855740;28;45021;-60
2022/10/21 14:15:08;;;;;;;1.40;1.27;;;20.20;51.30;;;;;;4889295;28;45502;-60
2022/10/21 14:17:33;;;;;;;2.10;1.52;;;20.30;51.30;;;;;;4871212;28;45360;-60
2022/10/21 14:20:05;;;;;;;1.70;1.48;;;20.30;51.20;;;;;;4872292;28;45559;-60
2022/10/21 14:22:31;;;;;;;1.67;1.38;;;20.30;51.20;;;;;;4869637;28;44950;-61
2022/10/21 14:24:57;;;;;;;3.40;1.25;;;20.40;51.30;;;;;;4887179;28;44848;-60
2022/10/21 14:27:27;;;;;;;1.33;1.17;;;20.40;51.20;;;;;;4871431;28;45806;-59
2022/10/21 14:29:52;;;;;;;1.40;1.30;;;20.40;51.20;;;;;;4874388;28;46818;-60
2022/10/21 14:32:19;;;;;;;1.50;1.20;;;20.40;51.20;;;;;;4889043;28;45534;-60
2022/10/21 14:35:00;;;;;;;1.88;1.40;;;20.40;51.20;;;;;;4888170;28;45038;-59
2022/10/21 14:37:26;;;;;;;1.52;1.40;;;20.40;51.20;;;;;;4884570;28;45656;-59
2022/10/21 14:39:51;;;;;;;1.60;1.30;;;20.40;51.20;;;;;;4885877;28;45852;-60
2022/10/21 14:42:21;;;;;;;2.00;1.20;;;20.40;51.20;;;;;;4887459;28;45612;-60
2022/10/21 14:44:47;;;;;;;1.77;1.48;;;20.50;51.20;;;;;;4888694;28;46181;-60
2022/10/21 14:47:31;;;;;;;1.40;1.30;;;20.50;51.20;;;;;;4886004;28;45301;-59
2022/10/21 14:49:58;;;;;;;1.08;1.05;;;20.50;51.10;;;;;;4888865;28;45404;-61
2022/10/21 14:52:35;;;;;;;1.52;1.42;;;20.50;51.30;;;;;;4886575;28;45691;-61
2022/10/21 14:55:02;;;;;;;1.50;1.35;;;20.50;51.20;;;;;;4870931;28;45537;-60
2022/10/21 14:57:30;;;;;;;1.38;1.25;;;20.50;51.20;;;;;;4864845;28;45211;-62
2022/10/21 14:59:56;;;;;;;1.50;1.40;;;20.50;51.20;;;;;;4905524;28;46390;-60
2022/10/21 15:02:25;;;;;;;2.30;1.17;;;20.60;51.20;;;;;;4885307;28;45857;-60
2022/10/21 15:04:52;;;;;;;3.13;1.65;;;20.50;51.20;;;;;;4870303;28;46403;-60
2022/10/21 15:07:29;;;;;;;1.67;1.38;;;20.60;51.20;;;;;;4873971;28;46461;-59
2022/10/21 15:09:58;;;;;;;1.98;1.67;;;20.60;51.20;;;;;;4865535;28;45587;-60
2022/10/21 15:12:24;;;;;;;1.83;1.50;;;20.60;51.30;;;;;;4906321;28;46239;-60
2022/10/21 15:14:50;;;;;;;1.77;1.42;;;20.60;51.30;;;;;;4908066;28;45248;-60
2022/10/21 15:17:15;;;;;;;1.38;1.27;;;20.60;51.20;;;;;;4906838;28;45053;-61
2022/10/21 15:19:46;;;;;;;1.35;1.25;;;20.60;51.20;;;;;;4876900;28;46180;-59
2022/10/21 15:22:32;;;;;;;2.17;1.20;;;20.60;51.20;;;;;;4891044;28;45773;-60
2022/10/21 15:25:03;;;;;;;1.30;1.10;;;20.60;51.30;;;;;;4890466;28;45033;-60
2022/10/21 15:27:34;;;;;;;2.28;1.35;;;20.70;51.30;;;;;;4890364;28;44751;-59
2022/10/21 15:30:05;;;;;;;1.40;1.27;;;20.60;51.30;;;;;;4891760;28;45452;-60
2022/10/21 15:32:31;;;;;;;2.67;1.67;;;20.70;51.30;;;;;;4888007;28;45439;-60
2022/10/21 15:34:56;;;;;;;2.22;1.75;;;20.70;51.30;;;;;;4909686;28;45628;-59
2022/10/21 15:37:22;;;;;;;5.05;1.40;;;20.70;51.20;;;;;;4890538;28;45742;-60
2022/10/21 15:39:47;;;;;;;1.45;1.35;;;20.70;51.20;;;;;;4906846;28;46234;-59
2022/10/21 15:42:20;;;;;;;1.92;1.52;;;20.70;51.20;;;;;;4888546;28;45315;-59
2022/10/21 15:44:49;;;;;;;1.83;1.10;;;20.70;51.30;;;;;;4875387;28;45508;-59
2022/10/21 15:47:15;;;;;;;1.52;1.23;;;20.70;51.40;;;;;;4891196;28;45649;-59
2022/10/21 15:49:41;;;;;;;2.45;1.35;;;20.70;51.50;;;;;;4887225;28;47300;-59
2022/10/21 15:52:06;;;;;;;1.75;1.50;;;20.60;51.50;;;;;;4877132;28;45387;-59
2022/10/21 15:54:32;;;;;;;2.72;1.70;;;20.60;51.70;;;;;;4895769;28;45687;-59
2022/10/21 15:56:58;;;;;;;1.58;1.48;;;20.60;51.70;;;;;;4901224;28;45437;-59
2022/10/21 15:59:26;;;;;;;1.52;1.35;;;20.60;51.70;;;;;;4887182;28;46017;-59
2022/10/21 16:01:51;;;;;;;1.58;1.40;;;20.60;51.80;;;;;;4904760;28;45464;-62
2022/10/21 16:04:17;;;;;;;1.52;1.38;;;20.60;51.80;;;;;;4886844;28;45695;-61
2022/10/21 16:06:49;;;;;;;3.67;1.17;;;20.50;51.80;;;;;;4888527;28;45719;-60
2022/10/21 16:09:20;;;;;;;2.17;1.58;;;20.60;51.90;;;;;;4888236;28;45694;-61
2022/10/21 16:11:47;;;;;;;1.35;1.20;;;20.50;51.80;;;;;;4904979;28;45763;-61